sensor_id;sensor_type;location;lat;lon;timestamp;P1;durP1;ratioP1;P2;durP2;ratioP2
52106;SDS011;38105;52.968;5.974;2023-07-28T06:43:11;36.90;;;19.50;;
52106;SDS011;38105;52.968;5.974;2023-07-28T07:14:49;3.35;;;3.05;;
52106;SDS011;38105;52.968;5.974;2023-07-28T07:17:14;7.20;;;1.80;;
52106;SDS011;38105;52.968;5.974;2023-07-28T07:19:40;2.08;;;0.50;;
52106;SDS011;38105;52.968;5.974;2023-07-28T07:22:06;50.75;;;12.70;;
52106;SDS011;38105;52.968;5.974;2023-07-28T07:24:32;53.45;;;13.23;;
52106;SDS011;38105;52.968;5.974;2023-07-28T07:26:57;108.30;;;29.40;;
52106;SDS011;38105;52.968;5.974;2023-07-28T07:29:23;94.95;;;28.23;;
52106;SDS011;38105;52.968;5.974;2023-07-28T07:31:49;83.28;;;27.33;;
52106;SDS011;38105;52.968;5.974;2023-07-28T07:34:19;84.53;;;27.02;;
52106;SDS011;38105;52.968;5.974;2023-07-28T07:36:45;84.85;;;27.00;;
52106;SDS011;38105;52.968;5.974;2023-07-28T07:39:11;82.47;;;26.85;;
52106;SDS011;38105;52.968;5.974;2023-07-28T07:41:37;76.75;;;25.98;;
52106;SDS011;38105;52.968;5.974;2023-07-28T07:44:02;78.25;;;26.23;;
52106;SDS011;38105;52.968;5.974;2023-07-28T07:46:28;75.18;;;25.85;;
52106;SDS011;38105;52.968;5.974;2023-07-28T07:48:54;74.38;;;25.92;;
52106;SDS011;38105;52.968;5.974;2023-07-28T07:51:20;71.25;;;25.50;;
52106;SDS011;38105;52.968;5.974;2023-07-28T07:53:45;72.25;;;25.58;;
52106;SDS011;38105;52.968;5.974;2023-07-28T07:56:11;74.50;;;26.13;;
52106;SDS011;38105;52.968;5.974;2023-07-28T07:58:37;73.10;;;25.80;;
52106;SDS011;38105;52.968;5.974;2023-07-28T08:01:03;73.22;;;25.88;;
52106;SDS011;38105;52.968;5.974;2023-07-28T08:03:29;73.00;;;25.85;;
52106;SDS011;38105;52.968;5.974;2023-07-28T08:05:55;75.88;;;26.30;;
52106;SDS011;38105;52.968;5.974;2023-07-28T08:08:21;77.70;;;26.40;;
52106;SDS011;38105;52.968;5.974;2023-07-28T08:10:47;80.18;;;26.73;;
52106;SDS011;38105;52.968;5.974;2023-07-28T08:13:13;80.28;;;26.52;;
52106;SDS011;38105;52.968;5.974;2023-07-28T08:15:39;77.43;;;26.42;;
52106;SDS011;38105;52.968;5.974;2023-07-28T08:18:05;73.38;;;25.73;;
52106;SDS011;38105;52.968;5.974;2023-07-28T08:20:30;75.65;;;26.20;;
52106;SDS011;38105;52.968;5.974;2023-07-28T08:22:56;75.05;;;25.80;;
52106;SDS011;38105;52.968;5.974;2023-07-28T08:25:22;78.40;;;26.27;;
52106;SDS011;38105;52.968;5.974;2023-07-28T08:27:48;77.45;;;26.17;;
52106;SDS011;38105;52.968;5.974;2023-07-28T08:30:14;78.57;;;26.83;;
52106;SDS011;38105;52.968;5.974;2023-07-28T08:32:40;80.20;;;26.55;;
52106;SDS011;38105;52.968;5.974;2023-07-28T08:35:07;79.85;;;26.40;;
52106;SDS011;38105;52.968;5.974;2023-07-28T08:37:33;80.88;;;26.35;;
52106;SDS011;38105;52.968;5.974;2023-07-28T08:39:59;80.78;;;26.58;;
52106;SDS011;38105;52.968;5.974;2023-07-28T08:42:24;82.47;;;26.88;;
52106;SDS011;38105;52.968;5.974;2023-07-28T08:44:50;81.55;;;26.55;;
52106;SDS011;38105;52.968;5.974;2023-07-28T08:47:17;81.50;;;26.65;;
52106;SDS011;38105;52.968;5.974;2023-07-28T08:49:44;83.32;;;26.77;;
52106;SDS011;38105;52.968;5.974;2023-07-28T08:52:10;80.93;;;26.45;;
52106;SDS011;38105;52.968;5.974;2023-07-28T08:54:35;77.82;;;25.90;;
52106;SDS011;38105;52.968;5.974;2023-07-28T08:57:01;80.03;;;26.48;;
52106;SDS011;38105;52.968;5.974;2023-07-28T08:59:28;78.75;;;26.33;;
52106;SDS011;38105;52.968;5.974;2023-07-28T09:01:55;78.80;;;26.20;;
52106;SDS011;38105;52.968;5.974;2023-07-28T09:04:23;79.55;;;26.48;;
52106;SDS011;38105;52.968;5.974;2023-07-28T09:06:49;79.93;;;26.67;;
52106;SDS011;38105;52.968;5.974;2023-07-28T09:09:16;78.53;;;26.63;;
52106;SDS011;38105;52.968;5.974;2023-07-28T09:11:44;80.00;;;26.67;;
52106;SDS011;38105;52.968;5.974;2023-07-28T09:14:14;82.65;;;26.95;;
52106;SDS011;38105;52.968;5.974;2023-07-28T09:16:41;82.68;;;26.80;;
52106;SDS011;38105;52.968;5.974;2023-07-28T09:19:08;80.35;;;26.67;;
52106;SDS011;38105;52.968;5.974;2023-07-28T09:21:35;78.60;;;26.35;;
52106;SDS011;38105;52.968;5.974;2023-07-28T09:24:05;77.78;;;26.08;;
52106;SDS011;38105;52.968;5.974;2023-07-28T09:29:10;81.65;;;27.08;;
52106;SDS011;38105;52.968;5.974;2023-07-28T09:31:40;82.60;;;27.05;;
52106;SDS011;38105;52.968;5.974;2023-07-28T09:34:07;83.18;;;27.05;;
52106;SDS011;38105;52.968;5.974;2023-07-28T09:36:33;82.82;;;26.92;;
52106;SDS011;38105;52.968;5.974;2023-07-28T09:38:59;82.95;;;27.00;;
52106;SDS011;38105;52.968;5.974;2023-07-28T09:41:28;83.20;;;27.00;;
52106;SDS011;38105;52.968;5.974;2023-07-28T09:43:55;84.70;;;26.98;;
52106;SDS011;38105;52.968;5.974;2023-07-28T09:46:21;83.97;;;26.92;;
52106;SDS011;38105;52.968;5.974;2023-07-28T09:48:49;83.10;;;26.98;;
52106;SDS011;38105;52.968;5.974;2023-07-28T09:51:19;82.72;;;27.00;;
52106;SDS011;38105;52.968;5.974;2023-07-28T09:53:52;83.55;;;26.98;;
52106;SDS011;38105;52.968;5.974;2023-07-28T09:56:21;82.60;;;26.90;;
52106;SDS011;38105;52.968;5.974;2023-07-28T09:58:51;84.78;;;27.33;;
52106;SDS011;38105;52.968;5.974;2023-07-28T10:01:18;86.93;;;27.45;;
52106;SDS011;38105;52.968;5.974;2023-07-28T10:03:45;87.47;;;27.52;;
52106;SDS011;38105;52.968;5.974;2023-07-28T10:06:12;87.05;;;27.48;;
52106;SDS011;38105;52.968;5.974;2023-07-28T10:08:39;85.60;;;27.08;;
52106;SDS011;38105;52.968;5.974;2023-07-28T10:11:06;86.90;;;27.27;;
52106;SDS011;38105;52.968;5.974;2023-07-28T10:13:42;85.80;;;27.23;;
52106;SDS011;38105;52.968;5.974;2023-07-28T10:16:09;84.35;;;27.08;;
52106;SDS011;38105;52.968;5.974;2023-07-28T10:18:35;84.30;;;27.02;;
52106;SDS011;38105;52.968;5.974;2023-07-28T10:21:04;83.75;;;26.98;;
52106;SDS011;38105;52.968;5.974;2023-07-28T10:23:30;83.78;;;26.98;;
52106;SDS011;38105;52.968;5.974;2023-07-28T10:26:01;84.82;;;27.17;;
52106;SDS011;38105;52.968;5.974;2023-07-28T10:28:37;86.13;;;27.42;;
52106;SDS011;38105;52.968;5.974;2023-07-28T10:31:06;85.70;;;27.20;;
52106;SDS011;38105;52.968;5.974;2023-07-28T10:33:34;87.97;;;27.38;;
52106;SDS011;38105;52.968;5.974;2023-07-28T10:39:02;89.57;;;27.55;;
52106;SDS011;38105;52.968;5.974;2023-07-28T10:44:34;90.40;;;27.85;;
52106;SDS011;38105;52.968;5.974;2023-07-28T10:47:00;89.38;;;27.50;;
52106;SDS011;38105;52.968;5.974;2023-07-28T10:49:26;89.55;;;27.42;;
52106;SDS011;38105;52.968;5.974;2023-07-28T10:51:53;89.80;;;27.60;;
52106;SDS011;38105;52.968;5.974;2023-07-28T10:54:19;90.43;;;27.75;;
52106;SDS011;38105;52.968;5.974;2023-07-28T10:56:48;89.47;;;27.58;;
52106;SDS011;38105;52.968;5.974;2023-07-28T10:59:14;90.80;;;27.90;;
52106;SDS011;38105;52.968;5.974;2023-07-28T11:01:43;90.53;;;27.85;;
52106;SDS011;38105;52.968;5.974;2023-07-28T11:04:19;90.35;;;27.75;;
52106;SDS011;38105;52.968;5.974;2023-07-28T11:06:48;89.53;;;27.45;;
52106;SDS011;38105;52.968;5.974;2023-07-28T11:09:18;89.70;;;27.48;;
52106;SDS011;38105;52.968;5.974;2023-07-28T11:11:47;90.93;;;27.85;;
52106;SDS011;38105;52.968;5.974;2023-07-28T11:14:14;91.13;;;27.95;;
52106;SDS011;38105;52.968;5.974;2023-07-28T11:16:42;89.65;;;27.58;;
52106;SDS011;38105;52.968;5.974;2023-07-28T11:19:10;89.07;;;27.48;;
52106;SDS011;38105;52.968;5.974;2023-07-28T11:21:39;89.43;;;27.85;;
52106;SDS011;38105;52.968;5.974;2023-07-28T11:24:17;89.88;;;27.77;;
52106;SDS011;38105;52.968;5.974;2023-07-28T11:26:43;88.78;;;27.38;;
52106;SDS011;38105;52.968;5.974;2023-07-28T11:29:11;87.57;;;27.20;;
52106;SDS011;38105;52.968;5.974;2023-07-28T11:31:37;87.45;;;27.05;;
52106;SDS011;38105;52.968;5.974;2023-07-28T11:34:02;87.05;;;27.13;;
52106;SDS011;38105;52.968;5.974;2023-07-28T11:36:37;87.63;;;27.33;;
52106;SDS011;38105;52.968;5.974;2023-07-28T11:39:03;86.68;;;27.15;;
52106;SDS011;38105;52.968;5.974;2023-07-28T11:41:30;86.85;;;27.20;;
52106;SDS011;38105;52.968;5.974;2023-07-28T11:43:58;87.40;;;27.25;;
52106;SDS011;38105;52.968;5.974;2023-07-28T11:46:37;87.10;;;27.20;;
52106;SDS011;38105;52.968;5.974;2023-07-28T11:51:37;88.38;;;27.73;;
52106;SDS011;38105;52.968;5.974;2023-07-28T11:54:10;87.78;;;27.50;;
52106;SDS011;38105;52.968;5.974;2023-07-28T11:56:37;86.57;;;27.27;;
52106;SDS011;38105;52.968;5.974;2023-07-28T11:59:03;87.07;;;27.23;;
52106;SDS011;38105;52.968;5.974;2023-07-28T12:01:29;87.97;;;27.38;;
52106;SDS011;38105;52.968;5.974;2023-07-28T12:03:54;88.03;;;27.35;;
52106;SDS011;38105;52.968;5.974;2023-07-28T12:06:20;87.05;;;27.25;;
52106;SDS011;38105;52.968;5.974;2023-07-28T12:08:46;86.75;;;27.33;;
52106;SDS011;38105;52.968;5.974;2023-07-28T12:11:15;87.32;;;27.13;;
52106;SDS011;38105;52.968;5.974;2023-07-28T12:13:48;87.68;;;27.23;;
52106;SDS011;38105;52.968;5.974;2023-07-28T12:19:09;85.70;;;26.90;;
52106;SDS011;38105;52.968;5.974;2023-07-28T12:21:34;85.15;;;26.85;;
52106;SDS011;38105;52.968;5.974;2023-07-28T12:24:00;84.65;;;26.75;;
52106;SDS011;38105;52.968;5.974;2023-07-28T12:26:25;83.85;;;26.85;;
52106;SDS011;38105;52.968;5.974;2023-07-28T12:28:51;82.78;;;26.73;;
52106;SDS011;38105;52.968;5.974;2023-07-28T12:31:17;82.80;;;26.75;;
52106;SDS011;38105;52.968;5.974;2023-07-28T12:33:42;82.85;;;26.52;;
52106;SDS011;38105;52.968;5.974;2023-07-28T12:36:08;81.90;;;26.45;;
52106;SDS011;38105;52.968;5.974;2023-07-28T12:38:34;83.05;;;26.95;;
52106;SDS011;38105;52.968;5.974;2023-07-28T12:41:00;82.88;;;26.88;;
52106;SDS011;38105;52.968;5.974;2023-07-28T12:43:25;82.82;;;26.83;;
52106;SDS011;38105;52.968;5.974;2023-07-28T12:45:51;82.38;;;26.70;;
52106;SDS011;38105;52.968;5.974;2023-07-28T12:48:18;82.22;;;26.67;;
52106;SDS011;38105;52.968;5.974;2023-07-28T12:50:44;80.78;;;26.52;;
52106;SDS011;38105;52.968;5.974;2023-07-28T12:53:10;79.65;;;26.35;;
52106;SDS011;38105;52.968;5.974;2023-07-28T12:55:35;79.78;;;26.33;;
52106;SDS011;38105;52.968;5.974;2023-07-28T12:58:02;80.70;;;26.63;;
52106;SDS011;38105;52.968;5.974;2023-07-28T13:00:28;81.18;;;26.77;;
52106;SDS011;38105;52.968;5.974;2023-07-28T13:02:53;81.00;;;26.73;;
52106;SDS011;38105;52.968;5.974;2023-07-28T13:05:19;81.78;;;26.83;;
52106;SDS011;38105;52.968;5.974;2023-07-28T13:07:45;82.35;;;26.75;;
52106;SDS011;38105;52.968;5.974;2023-07-28T13:10:10;81.93;;;26.73;;
52106;SDS011;38105;52.968;5.974;2023-07-28T13:12:36;81.80;;;26.80;;
52106;SDS011;38105;52.968;5.974;2023-07-28T13:15:02;80.25;;;26.27;;
52106;SDS011;38105;52.968;5.974;2023-07-28T13:17:29;81.97;;;26.77;;
52106;SDS011;38105;52.968;5.974;2023-07-28T13:19:54;81.93;;;26.77;;
52106;SDS011;38105;52.968;5.974;2023-07-28T13:22:22;81.47;;;26.40;;
52106;SDS011;38105;52.968;5.974;2023-07-28T13:24:48;80.97;;;26.58;;
52106;SDS011;38105;52.968;5.974;2023-07-28T13:27:14;81.95;;;26.52;;
52106;SDS011;38105;52.968;5.974;2023-07-28T13:29:39;80.90;;;26.40;;
52106;SDS011;38105;52.968;5.974;2023-07-28T13:32:13;81.82;;;26.92;;
52106;SDS011;38105;52.968;5.974;2023-07-28T13:34:43;82.18;;;26.45;;
52106;SDS011;38105;52.968;5.974;2023-07-28T13:37:10;81.53;;;26.63;;
52106;SDS011;38105;52.968;5.974;2023-07-28T13:39:35;81.72;;;26.70;;
52106;SDS011;38105;52.968;5.974;2023-07-28T13:42:01;81.78;;;26.77;;
52106;SDS011;38105;52.968;5.974;2023-07-28T13:44:27;83.03;;;26.70;;
52106;SDS011;38105;52.968;5.974;2023-07-28T13:46:52;83.30;;;27.02;;
52106;SDS011;38105;52.968;5.974;2023-07-28T13:49:18;82.47;;;26.58;;
52106;SDS011;38105;52.968;5.974;2023-07-28T13:51:43;81.72;;;26.52;;
52106;SDS011;38105;52.968;5.974;2023-07-28T13:54:09;82.38;;;26.52;;
52106;SDS011;38105;52.968;5.974;2023-07-28T13:56:36;81.72;;;26.45;;
52106;SDS011;38105;52.968;5.974;2023-07-28T13:59:02;81.32;;;26.42;;
52106;SDS011;38105;52.968;5.974;2023-07-28T14:01:27;81.82;;;26.58;;
52106;SDS011;38105;52.968;5.974;2023-07-28T14:03:53;81.47;;;26.45;;
52106;SDS011;38105;52.968;5.974;2023-07-28T14:06:19;81.57;;;26.42;;
52106;SDS011;38105;52.968;5.974;2023-07-28T14:08:44;82.70;;;26.85;;
52106;SDS011;38105;52.968;5.974;2023-07-28T14:11:10;82.00;;;26.45;;
52106;SDS011;38105;52.968;5.974;2023-07-28T14:13:36;81.65;;;26.60;;
52106;SDS011;38105;52.968;5.974;2023-07-28T14:16:01;80.13;;;26.17;;
52106;SDS011;38105;52.968;5.974;2023-07-28T14:18:27;79.15;;;26.10;;
52106;SDS011;38105;52.968;5.974;2023-07-28T14:20:53;78.78;;;26.15;;
52106;SDS011;38105;52.968;5.974;2023-07-28T14:23:25;77.85;;;26.05;;
52106;SDS011;38105;52.968;5.974;2023-07-28T14:25:53;77.68;;;26.13;;
52106;SDS011;38105;52.968;5.974;2023-07-28T14:28:19;77.78;;;26.13;;
52106;SDS011;38105;52.968;5.974;2023-07-28T14:30:46;77.20;;;26.00;;
52106;SDS011;38105;52.968;5.974;2023-07-28T14:33:15;77.53;;;26.02;;
52106;SDS011;38105;52.968;5.974;2023-07-28T14:35:45;76.15;;;25.85;;
52106;SDS011;38105;52.968;5.974;2023-07-28T14:38:13;75.97;;;25.88;;
52106;SDS011;38105;52.968;5.974;2023-07-28T14:40:39;75.07;;;25.67;;
52106;SDS011;38105;52.968;5.974;2023-07-28T14:43:05;75.47;;;25.75;;
52106;SDS011;38105;52.968;5.974;2023-07-28T14:45:31;75.30;;;25.65;;
52106;SDS011;38105;52.968;5.974;2023-07-28T14:47:57;74.88;;;25.65;;
52106;SDS011;38105;52.968;5.974;2023-07-28T14:50:23;73.68;;;25.15;;
52106;SDS011;38105;52.968;5.974;2023-07-28T14:52:48;73.78;;;25.48;;
52106;SDS011;38105;52.968;5.974;2023-07-28T14:55:14;72.60;;;25.25;;
52106;SDS011;38105;52.968;5.974;2023-07-28T14:57:40;73.05;;;25.23;;
52106;SDS011;38105;52.968;5.974;2023-07-28T15:00:06;71.75;;;25.05;;
52106;SDS011;38105;52.968;5.974;2023-07-28T15:02:35;71.90;;;25.08;;
52106;SDS011;38105;52.968;5.974;2023-07-28T15:05:01;72.05;;;25.13;;
52106;SDS011;38105;52.968;5.974;2023-07-28T15:07:27;71.10;;;25.10;;
52106;SDS011;38105;52.968;5.974;2023-07-28T15:09:53;71.22;;;25.20;;
52106;SDS011;38105;52.968;5.974;2023-07-28T15:12:19;71.00;;;25.52;;
52106;SDS011;38105;52.968;5.974;2023-07-28T15:14:45;70.30;;;25.35;;
52106;SDS011;38105;52.968;5.974;2023-07-28T15:17:10;69.70;;;25.10;;
52106;SDS011;38105;52.968;5.974;2023-07-28T15:19:36;69.15;;;25.05;;
52106;SDS011;38105;52.968;5.974;2023-07-28T15:22:02;69.28;;;25.15;;
52106;SDS011;38105;52.968;5.974;2023-07-28T15:24:28;68.57;;;25.08;;
52106;SDS011;38105;52.968;5.974;2023-07-28T15:26:53;66.88;;;24.83;;
52106;SDS011;38105;52.968;5.974;2023-07-28T15:29:19;65.22;;;24.63;;
52106;SDS011;38105;52.968;5.974;2023-07-28T15:31:45;64.72;;;24.40;;
52106;SDS011;38105;52.968;5.974;2023-07-28T15:34:10;64.15;;;24.50;;
52106;SDS011;38105;52.968;5.974;2023-07-28T15:36:36;63.17;;;24.27;;
52106;SDS011;38105;52.968;5.974;2023-07-28T15:39:02;62.97;;;24.38;;
52106;SDS011;38105;52.968;5.974;2023-07-28T15:41:28;62.17;;;24.20;;
52106;SDS011;38105;52.968;5.974;2023-07-28T15:43:54;62.10;;;24.08;;
52106;SDS011;38105;52.968;5.974;2023-07-28T15:46:20;61.47;;;24.08;;
52106;SDS011;38105;52.968;5.974;2023-07-28T15:48:46;60.45;;;24.13;;
52106;SDS011;38105;52.968;5.974;2023-07-28T15:51:12;59.28;;;23.77;;
52106;SDS011;38105;52.968;5.974;2023-07-28T15:53:38;58.63;;;23.63;;
52106;SDS011;38105;52.968;5.974;2023-07-28T15:56:04;58.72;;;23.65;;
52106;SDS011;38105;52.968;5.974;2023-07-28T15:58:30;58.90;;;23.73;;
52106;SDS011;38105;52.968;5.974;2023-07-28T16:00:56;58.35;;;23.63;;
52106;SDS011;38105;52.968;5.974;2023-07-28T16:03:21;59.03;;;23.75;;
52106;SDS011;38105;52.968;5.974;2023-07-28T16:05:47;59.10;;;23.75;;
52106;SDS011;38105;52.968;5.974;2023-07-28T16:08:13;59.58;;;23.88;;
52106;SDS011;38105;52.968;5.974;2023-07-28T16:10:38;59.85;;;23.88;;
52106;SDS011;38105;52.968;5.974;2023-07-28T16:13:04;60.70;;;23.92;;
52106;SDS011;38105;52.968;5.974;2023-07-28T16:15:30;60.67;;;24.10;;
52106;SDS011;38105;52.968;5.974;2023-07-28T16:17:55;60.70;;;24.02;;
52106;SDS011;38105;52.968;5.974;2023-07-28T16:20:21;60.45;;;24.02;;
52106;SDS011;38105;52.968;5.974;2023-07-28T16:22:47;60.75;;;24.05;;
52106;SDS011;38105;52.968;5.974;2023-07-28T16:25:12;61.05;;;24.23;;
52106;SDS011;38105;52.968;5.974;2023-07-28T16:27:38;60.47;;;23.92;;
52106;SDS011;38105;52.968;5.974;2023-07-28T16:30:05;60.95;;;24.08;;
52106;SDS011;38105;52.968;5.974;2023-07-28T16:32:31;61.67;;;24.13;;
52106;SDS011;38105;52.968;5.974;2023-07-28T16:34:57;61.42;;;24.00;;
52106;SDS011;38105;52.968;5.974;2023-07-28T16:37:23;60.85;;;23.95;;
52106;SDS011;38105;52.968;5.974;2023-07-28T16:39:49;61.20;;;24.02;;
52106;SDS011;38105;52.968;5.974;2023-07-28T16:42:16;61.08;;;24.17;;
52106;SDS011;38105;52.968;5.974;2023-07-28T16:44:42;60.38;;;23.98;;
52106;SDS011;38105;52.968;5.974;2023-07-28T16:47:08;60.47;;;24.02;;
52106;SDS011;38105;52.968;5.974;2023-07-28T16:49:34;60.00;;;23.88;;
52106;SDS011;38105;52.968;5.974;2023-07-28T16:52:00;60.22;;;23.95;;
52106;SDS011;38105;52.968;5.974;2023-07-28T16:54:26;58.85;;;23.63;;
52106;SDS011;38105;52.968;5.974;2023-07-28T16:56:53;59.40;;;23.80;;
52106;SDS011;38105;52.968;5.974;2023-07-28T16:59:22;58.95;;;23.80;;
52106;SDS011;38105;52.968;5.974;2023-07-28T17:01:48;59.45;;;23.90;;
52106;SDS011;38105;52.968;5.974;2023-07-28T17:04:14;59.50;;;23.85;;
52106;SDS011;38105;52.968;5.974;2023-07-28T17:06:39;58.88;;;23.65;;
52106;SDS011;38105;52.968;5.974;2023-07-28T17:09:05;58.55;;;23.55;;
52106;SDS011;38105;52.968;5.974;2023-07-28T17:11:31;59.42;;;23.92;;
52106;SDS011;38105;52.968;5.974;2023-07-28T17:13:57;59.53;;;23.90;;
52106;SDS011;38105;52.968;5.974;2023-07-28T17:16:23;59.03;;;23.73;;
52106;SDS011;38105;52.968;5.974;2023-07-28T17:18:50;58.75;;;23.77;;
52106;SDS011;38105;52.968;5.974;2023-07-28T17:21:16;58.05;;;23.58;;
52106;SDS011;38105;52.968;5.974;2023-07-28T17:23:43;58.03;;;23.42;;
52106;SDS011;38105;52.968;5.974;2023-07-28T17:26:08;58.30;;;23.60;;
52106;SDS011;38105;52.968;5.974;2023-07-28T17:28:34;58.58;;;23.60;;
52106;SDS011;38105;52.968;5.974;2023-07-28T17:31:00;58.60;;;23.63;;
52106;SDS011;38105;52.968;5.974;2023-07-28T17:33:26;57.05;;;23.25;;
52106;SDS011;38105;52.968;5.974;2023-07-28T17:35:52;57.45;;;23.45;;
52106;SDS011;38105;52.968;5.974;2023-07-28T17:38:17;57.47;;;23.35;;
52106;SDS011;38105;52.968;5.974;2023-07-28T17:40:43;57.15;;;23.30;;
52106;SDS011;38105;52.968;5.974;2023-07-28T17:43:09;56.95;;;23.35;;
52106;SDS011;38105;52.968;5.974;2023-07-28T17:45:35;56.78;;;23.15;;
52106;SDS011;38105;52.968;5.974;2023-07-28T17:48:00;56.60;;;23.15;;
52106;SDS011;38105;52.968;5.974;2023-07-28T17:50:28;56.20;;;23.15;;
52106;SDS011;38105;52.968;5.974;2023-07-28T17:52:53;55.83;;;23.05;;
52106;SDS011;38105;52.968;5.974;2023-07-28T17:55:20;55.22;;;23.10;;
52106;SDS011;38105;52.968;5.974;2023-07-28T17:57:45;54.80;;;22.85;;
52106;SDS011;38105;52.968;5.974;2023-07-28T18:00:11;54.22;;;22.85;;
52106;SDS011;38105;52.968;5.974;2023-07-28T18:02:37;53.30;;;22.80;;
52106;SDS011;38105;52.968;5.974;2023-07-28T18:05:03;52.15;;;22.42;;
52106;SDS011;38105;52.968;5.974;2023-07-28T18:07:30;51.63;;;22.35;;
52106;SDS011;38105;52.968;5.974;2023-07-28T18:09:55;51.80;;;22.52;;
52106;SDS011;38105;52.968;5.974;2023-07-28T18:12:21;50.45;;;22.05;;
52106;SDS011;38105;52.968;5.974;2023-07-28T18:14:47;50.55;;;22.27;;
52106;SDS011;38105;52.968;5.974;2023-07-28T18:17:12;50.08;;;22.08;;
52106;SDS011;38105;52.968;5.974;2023-07-28T18:19:38;50.38;;;22.30;;
52106;SDS011;38105;52.968;5.974;2023-07-28T18:22:03;49.35;;;22.00;;
52106;SDS011;38105;52.968;5.974;2023-07-28T18:24:29;49.00;;;21.85;;
52106;SDS011;38105;52.968;5.974;2023-07-28T18:26:55;48.90;;;21.85;;
52106;SDS011;38105;52.968;5.974;2023-07-28T18:29:20;50.05;;;22.05;;
52106;SDS011;38105;52.968;5.974;2023-07-28T18:31:46;50.42;;;22.23;;
52106;SDS011;38105;52.968;5.974;2023-07-28T18:34:12;50.20;;;21.95;;
52106;SDS011;38105;52.968;5.974;2023-07-28T18:36:37;51.05;;;22.35;;
52106;SDS011;38105;52.968;5.974;2023-07-28T18:39:03;51.65;;;22.48;;
52106;SDS011;38105;52.968;5.974;2023-07-28T18:41:31;51.15;;;22.23;;
52106;SDS011;38105;52.968;5.974;2023-07-28T18:43:58;51.65;;;22.25;;
52106;SDS011;38105;52.968;5.974;2023-07-28T18:46:23;51.38;;;22.23;;
52106;SDS011;38105;52.968;5.974;2023-07-28T18:48:49;51.53;;;22.15;;
52106;SDS011;38105;52.968;5.974;2023-07-28T18:51:15;51.75;;;22.35;;
52106;SDS011;38105;52.968;5.974;2023-07-28T18:53:41;51.35;;;22.23;;
52106;SDS011;38105;52.968;5.974;2023-07-28T18:56:09;50.47;;;22.15;;
52106;SDS011;38105;52.968;5.974;2023-07-28T18:58:34;52.30;;;22.38;;
52106;SDS011;38105;52.968;5.974;2023-07-28T19:01:00;51.97;;;22.35;;
52106;SDS011;38105;52.968;5.974;2023-07-28T19:03:26;50.95;;;21.95;;
52106;SDS011;38105;52.968;5.974;2023-07-28T19:05:53;51.95;;;22.05;;
52106;SDS011;38105;52.968;5.974;2023-07-28T19:08:20;52.72;;;22.50;;
52106;SDS011;38105;52.968;5.974;2023-07-28T19:10:47;52.63;;;22.38;;
52106;SDS011;38105;52.968;5.974;2023-07-28T19:13:12;52.53;;;22.27;;
52106;SDS011;38105;52.968;5.974;2023-07-28T19:15:39;52.97;;;22.42;;
52106;SDS011;38105;52.968;5.974;2023-07-28T19:18:05;53.00;;;22.42;;
52106;SDS011;38105;52.968;5.974;2023-07-28T19:20:31;53.45;;;22.58;;
52106;SDS011;38105;52.968;5.974;2023-07-28T19:22:57;53.28;;;22.60;;
52106;SDS011;38105;52.968;5.974;2023-07-28T19:25:22;52.85;;;22.48;;
52106;SDS011;38105;52.968;5.974;2023-07-28T19:27:48;52.70;;;22.45;;
52106;SDS011;38105;52.968;5.974;2023-07-28T19:30:15;52.33;;;22.38;;
52106;SDS011;38105;52.968;5.974;2023-07-28T19:32:41;51.95;;;22.25;;
52106;SDS011;38105;52.968;5.974;2023-07-28T19:35:07;52.05;;;22.35;;
52106;SDS011;38105;52.968;5.974;2023-07-28T19:37:33;51.72;;;22.10;;
52106;SDS011;38105;52.968;5.974;2023-07-28T19:39:58;51.75;;;22.40;;
52106;SDS011;38105;52.968;5.974;2023-07-28T19:42:24;52.05;;;22.35;;
52106;SDS011;38105;52.968;5.974;2023-07-28T19:44:50;52.40;;;22.52;;
52106;SDS011;38105;52.968;5.974;2023-07-28T19:47:15;51.53;;;22.25;;
52106;SDS011;38105;52.968;5.974;2023-07-28T19:49:41;51.88;;;22.40;;
52106;SDS011;38105;52.968;5.974;2023-07-28T19:52:08;50.97;;;21.88;;
52106;SDS011;38105;52.968;5.974;2023-07-28T19:54:33;51.28;;;21.92;;
52106;SDS011;38105;52.968;5.974;2023-07-28T19:57:04;51.30;;;22.08;;
52106;SDS011;38105;52.968;5.974;2023-07-28T19:59:31;52.03;;;22.23;;
52106;SDS011;38105;52.968;5.974;2023-07-28T20:01:56;51.80;;;22.10;;
52106;SDS011;38105;52.968;5.974;2023-07-28T20:04:22;51.63;;;22.05;;
52106;SDS011;38105;52.968;5.974;2023-07-28T20:06:50;51.58;;;22.10;;
52106;SDS011;38105;52.968;5.974;2023-07-28T20:09:16;51.20;;;22.00;;
52106;SDS011;38105;52.968;5.974;2023-07-28T20:11:42;50.60;;;21.73;;
52106;SDS011;38105;52.968;5.974;2023-07-28T20:14:08;51.13;;;22.08;;
52106;SDS011;38105;52.968;5.974;2023-07-28T20:16:33;50.28;;;21.90;;
52106;SDS011;38105;52.968;5.974;2023-07-28T20:18:59;49.75;;;21.80;;
52106;SDS011;38105;52.968;5.974;2023-07-28T20:21:25;49.15;;;21.60;;
52106;SDS011;38105;52.968;5.974;2023-07-28T20:23:50;48.95;;;21.65;;
52106;SDS011;38105;52.968;5.974;2023-07-28T20:26:16;48.60;;;21.55;;
52106;SDS011;38105;52.968;5.974;2023-07-28T20:28:43;46.83;;;21.35;;
52106;SDS011;38105;52.968;5.974;2023-07-28T20:31:08;45.10;;;20.92;;
52106;SDS011;38105;52.968;5.974;2023-07-28T20:33:34;43.50;;;20.63;;
52106;SDS011;38105;52.968;5.974;2023-07-28T20:36:00;40.13;;;20.00;;
52106;SDS011;38105;52.968;5.974;2023-07-28T20:38:25;35.30;;;18.65;;
52106;SDS011;38105;52.968;5.974;2023-07-28T20:43:16;66.00;;;24.63;;
52106;SDS011;38105;52.968;5.974;2023-07-28T20:48:09;60.20;;;23.60;;
52106;SDS011;38105;52.968;5.974;2023-07-28T20:53:00;48.40;;;21.83;;
52106;SDS011;38105;52.968;5.974;2023-07-28T21:00:18;48.57;;;21.80;;
